WUP510 KDAL-KMEI
Flight info
| Callsign | WUP510 |
|---|---|
| Flight time | N/A |
| Altitude | 41000 |
| Route | EMMTT4 FORCK ELD SQS MEI |
| Aircraft | C56X/M-SDFGLM3ORVWY/SB1 |
Departure
| Time | 2026-04-29 21:16 |
|---|---|
| Airport | Dallas Love Field (KDAL) |
Arrival
| Time | N/A |
|---|---|
| Airport | Key Field / Meridian Regional Airport (KMEI) |
| Time | Latitude | Longitude | Altitude | Speed | Heading |
|---|---|---|---|---|---|
| 2026-04-29 21:01 | 32.85002 | -96.84396 | 494 ft | 0 kts | 136° |
| 2026-04-29 21:10 | 32.85001 | -96.84395 | 494 ft | 0 kts | 143° |
| 2026-04-29 21:10 | 32.84998 | -96.84395 | 494 ft | 1 kts | 192° |
| 2026-04-29 21:10 | 32.84980 | -96.84414 | 494 ft | 1 kts | 231° |
| 2026-04-29 21:11 | 32.84969 | -96.84432 | 493 ft | 4 kts | 240° |
| 2026-04-29 21:11 | 32.84953 | -96.84470 | 492 ft | 4 kts | 238° |
| 2026-04-29 21:11 | 32.84950 | -96.84476 | 492 ft | 0 kts | 239° |
| 2026-04-29 21:13 | 32.84947 | -96.84483 | 492 ft | 3 kts | 244° |
| 2026-04-29 21:13 | 32.84926 | -96.84523 | 490 ft | 7 kts | 232° |
| 2026-04-29 21:13 | 32.84875 | -96.84512 | 490 ft | 10 kts | 133° |
| 2026-04-29 21:13 | 32.84821 | -96.84448 | 490 ft | 11 kts | 135° |
| 2026-04-29 21:14 | 32.84759 | -96.84378 | 490 ft | 12 kts | 136° |
| 2026-04-29 21:14 | 32.84692 | -96.84300 | 490 ft | 14 kts | 141° |
| 2026-04-29 21:14 | 32.84622 | -96.84214 | 491 ft | 15 kts | 135° |
| 2026-04-29 21:14 | 32.84544 | -96.84127 | 491 ft | 16 kts | 136° |
| 2026-04-29 21:15 | 32.84460 | -96.84029 | 491 ft | 17 kts | 134° |
| 2026-04-29 21:15 | 32.84367 | -96.83920 | 490 ft | 19 kts | 136° |
| 2026-04-29 21:15 | 32.84298 | -96.83848 | 489 ft | 10 kts | 149° |
| 2026-04-29 21:15 | 32.84252 | -96.83871 | 488 ft | 9 kts | 224° |
| 2026-04-29 21:16 | 32.84233 | -96.83942 | 487 ft | 11 kts | 302° |
| 2026-04-29 21:16 | 32.84403 | -96.84147 | 488 ft | 89 kts | 315° |
| 2026-04-29 21:16 | 32.85106 | -96.84975 | 782 ft | 179 kts | 315° |
| 2026-04-29 21:16 | 32.86010 | -96.86143 | 1796 ft | 197 kts | 315° |
| 2026-04-29 21:17 | 32.86919 | -96.87314 | 2837 ft | 196 kts | 317° |
| 2026-04-29 21:17 | 32.87893 | -96.88382 | 3841 ft | 192 kts | 320° |
| 2026-04-29 21:17 | 32.88837 | -96.89316 | 4969 ft | 176 kts | 320° |
| 2026-04-29 21:17 | 32.89769 | -96.90162 | 5894 ft | 170 kts | 316° |
| 2026-04-29 21:18 | 32.90732 | -96.91020 | 6648 ft | 173 kts | 317° |
| 2026-04-29 21:18 | 32.91722 | -96.91790 | 7425 ft | 177 kts | 330° |
| 2026-04-29 21:18 | 32.93002 | -96.91865 | 7944 ft | 204 kts | 10° |
| 2026-04-29 21:18 | 32.94174 | -96.90977 | 8620 ft | 225 kts | 44° |
| 2026-04-29 21:19 | 32.95108 | -96.89526 | 9773 ft | 225 kts | 52° |
| 2026-04-29 21:19 | 32.95960 | -96.87997 | 10771 ft | 224 kts | 55° |
| 2026-04-29 21:19 | 32.96611 | -96.86240 | 11276 ft | 244 kts | 72° |
| 2026-04-29 21:19 | 32.96927 | -96.84282 | 12075 ft | 243 kts | 85° |
| 2026-04-29 21:20 | 32.96920 | -96.82190 | 12416 ft | 266 kts | 94° |
| 2026-04-29 21:20 | 32.96823 | -96.79981 | 13009 ft | 272 kts | 93° |
| 2026-04-29 21:20 | 32.96700 | -96.77743 | 13671 ft | 275 kts | 98° |
| 2026-04-29 21:20 | 32.96317 | -96.75474 | 14111 ft | 286 kts | 108° |
| 2026-04-29 21:21 | 32.95618 | -96.73264 | 14505 ft | 295 kts | 116° |
| 2026-04-29 21:21 | 32.94757 | -96.71038 | 15093 ft | 296 kts | 119° |
| 2026-04-29 21:21 | 32.93836 | -96.68849 | 15852 ft | 299 kts | 121° |
| 2026-04-29 21:21 | 32.92807 | -96.66743 | 16693 ft | 299 kts | 130° |
| 2026-04-29 21:22 | 32.91526 | -96.64796 | 17554 ft | 297 kts | 135° |
| 2026-04-29 21:22 | 32.90227 | -96.62909 | 18285 ft | 299 kts | 136° |
| 2026-04-29 21:22 | 32.88804 | -96.61089 | 18814 ft | 306 kts | 141° |
| 2026-04-29 21:22 | 32.87404 | -96.59142 | 19407 ft | 315 kts | 131° |
| 2026-04-29 21:23 | 32.86286 | -96.56900 | 19931 ft | 324 kts | 120° |
| 2026-04-29 21:23 | 32.85460 | -96.54387 | 20402 ft | 330 kts | 115° |
| 2026-04-29 21:23 | 32.84623 | -96.51822 | 20802 ft | 336 kts | 117° |
| 2026-04-29 21:23 | 32.83714 | -96.49294 | 21244 ft | 337 kts | 118° |
| 2026-04-29 21:24 | 32.82767 | -96.46713 | 21704 ft | 341 kts | 118° |
| 2026-04-29 21:24 | 32.81920 | -96.44049 | 21771 ft | 359 kts | 114° |
| 2026-04-29 21:24 | 32.81103 | -96.41143 | 21983 ft | 373 kts | 112° |
| 2026-04-29 21:24 | 32.80283 | -96.38274 | 22786 ft | 363 kts | 115° |
| 2026-04-29 21:25 | 32.79391 | -96.35569 | 23661 ft | 352 kts | 118° |
| 2026-04-29 21:25 | 32.78468 | -96.32844 | 24003 ft | 363 kts | 118° |
| 2026-04-29 21:25 | 32.77574 | -96.29918 | 24048 ft | 384 kts | 113° |
| 2026-04-29 21:25 | 32.76917 | -96.26791 | 24445 ft | 398 kts | 103° |
| 2026-04-29 21:26 | 32.76701 | -96.23557 | 25264 ft | 398 kts | 91° |
| 2026-04-29 21:26 | 32.76817 | -96.20295 | 26044 ft | 400 kts | 85° |
| 2026-04-29 21:26 | 32.77049 | -96.16981 | 26714 ft | 404 kts | 85° |
| 2026-04-29 21:26 | 32.77315 | -96.13648 | 27320 ft | 408 kts | 82° |
| 2026-04-29 21:27 | 32.77657 | -96.10318 | 27890 ft | 413 kts | 81° |
| 2026-04-29 21:27 | 32.77924 | -96.06936 | 28439 ft | 420 kts | 86° |
| 2026-04-29 21:27 | 32.77904 | -96.03406 | 28900 ft | 428 kts | 91° |
| 2026-04-29 21:27 | 32.77887 | -95.99900 | 29399 ft | 431 kts | 85° |
| 2026-04-29 21:28 | 32.78153 | -95.96356 | 30069 ft | 428 kts | 81° |
| 2026-04-29 21:28 | 32.78436 | -95.92901 | 29873 ft | 426 kts | 83° |
| 2026-04-29 21:28 | 32.78939 | -95.89288 | 29247 ft | 454 kts | 75° |
| 2026-04-29 21:28 | 32.79466 | -95.85766 | 30904 ft | 420 kts | 76° |
| 2026-04-29 21:29 | 32.80113 | -95.82538 | 32150 ft | 396 kts | 63° |
| 2026-04-29 21:29 | 32.81109 | -95.79389 | 31654 ft | 432 kts | 63° |
| 2026-04-29 21:29 | 32.82138 | -95.76244 | 33295 ft | 386 kts | 59° |
| 2026-04-29 21:29 | 32.83197 | -95.73544 | 34964 ft | 353 kts | 51° |
| 2026-04-29 21:30 | 32.84255 | -95.70918 | 35763 ft | 353 kts | 53° |
| 2026-04-29 21:30 | 32.85236 | -95.68196 | 36189 ft | 365 kts | 56° |
| 2026-04-29 21:30 | 32.86123 | -95.65354 | 36525 ft | 377 kts | 59° |
| 2026-04-29 21:30 | 32.86949 | -95.62322 | 37140 ft | 391 kts | 63° |
| 2026-04-29 21:31 | 32.87661 | -95.59226 | 38316 ft | 387 kts | 65° |
| 2026-04-29 21:31 | 32.88286 | -95.56146 | 39256 ft | 393 kts | 68° |
| 2026-04-29 21:31 | 32.88758 | -95.52879 | 39836 ft | 405 kts | 73° |
| 2026-04-29 21:31 | 32.89127 | -95.49528 | 40052 ft | 421 kts | 75° |
| 2026-04-29 21:32 | 32.89414 | -95.46040 | 40618 ft | 425 kts | 79° |
| 2026-04-29 21:32 | 32.89608 | -95.42515 | 41024 ft | 434 kts | 82° |
| 2026-04-29 21:32 | 32.89747 | -95.38888 | 41116 ft | 448 kts | 83° |
| 2026-04-29 21:32 | 32.89855 | -95.35139 | 41058 ft | 466 kts | 82° |
| 2026-04-29 21:33 | 32.89982 | -95.31233 | 41102 ft | 478 kts | 82° |
| 2026-04-29 21:33 | 32.90307 | -95.23191 | 41146 ft | 497 kts | 84° |
| 2026-04-29 21:34 | 32.90564 | -95.14992 | 41040 ft | 506 kts | 82° |
| 2026-04-29 21:34 | 32.90810 | -95.10846 | 41200 ft | 500 kts | 82° |
| 2026-04-29 21:34 | 32.91006 | -95.06720 | 41040 ft | 501 kts | 83° |
| 2026-04-29 21:34 | 32.91202 | -95.02631 | 41244 ft | 495 kts | 82° |
| 2026-04-29 21:35 | 32.91444 | -94.98498 | 41412 ft | 495 kts | 81° |
| 2026-04-29 21:35 | 32.91751 | -94.94435 | 41205 ft | 493 kts | 79° |
| 2026-04-29 21:35 | 32.92152 | -94.90401 | 41246 ft | 493 kts | 78° |
| 2026-04-29 21:36 | 32.92974 | -94.82330 | 41226 ft | 493 kts | 77° |
| 2026-04-29 21:36 | 32.93496 | -94.78310 | 41101 ft | 491 kts | 73° |
| 2026-04-29 21:36 | 32.94073 | -94.74356 | 41167 ft | 491 kts | 75° |
| 2026-04-29 21:36 | 32.94611 | -94.70412 | 41669 ft | 479 kts | 75° |
| 2026-04-29 21:37 | 32.95097 | -94.66491 | 41617 ft | 487 kts | 77° |
| 2026-04-29 21:37 | 32.95593 | -94.62484 | 41381 ft | 491 kts | 75° |
| 2026-04-29 21:37 | 32.96172 | -94.58495 | 41469 ft | 484 kts | 72° |
| 2026-04-29 21:38 | 32.97515 | -94.50687 | 41048 ft | 485 kts | 70° |
| 2026-04-29 21:38 | 32.98245 | -94.46839 | 41329 ft | 474 kts | 70° |
| 2026-04-29 21:38 | 32.98955 | -94.42989 | 41105 ft | 480 kts | 71° |
| 2026-04-29 21:38 | 32.99645 | -94.39067 | 40981 ft | 482 kts | 71° |
| 2026-04-29 21:39 | 33.00255 | -94.35221 | 41321 ft | 475 kts | 73° |
| 2026-04-29 21:39 | 33.01500 | -94.27512 | 41368 ft | 474 kts | 75° |
| 2026-04-29 21:39 | 33.01863 | -94.23608 | 41044 ft | 487 kts | 79° |
| 2026-04-29 21:40 | 33.02179 | -94.19601 | 40997 ft | 485 kts | 78° |
| 2026-04-29 21:40 | 33.02445 | -94.15537 | 40596 ft | 492 kts | 79° |
| 2026-04-29 21:40 | 33.02819 | -94.11615 | 41115 ft | 476 kts | 77° |
| 2026-04-29 21:40 | 33.03293 | -94.07761 | 41446 ft | 469 kts | 75° |
| 2026-04-29 21:41 | 33.03876 | -94.03917 | 41289 ft | 474 kts | 73° |
| 2026-04-29 21:41 | 33.04632 | -93.96111 | 41533 ft | 475 kts | 81° |
| 2026-04-29 21:41 | 33.04930 | -93.92188 | 41781 ft | 471 kts | 78° |
| 2026-04-29 21:42 | 33.05260 | -93.88282 | 41486 ft | 481 kts | 80° |